Time;durP1;ratioP1;P1;durP2;ratioP2;P2;SDS_P1;SDS_P2;PMS_P1;PMS_P2;Temp;Humidity;BMP_temperature;BMP_pressure;BME280_temperature;BME280_humidity;BME280_pressure;Samples;Min_cycle;Max_cycle;Signal;HPM_P1;HPM_P2
2022/01/13 00:01:40;;;;;;;8.73;5.97;;;;;;;-2.93;58.12;96130.56;5152171;27;20015;-72
2022/01/13 00:04:07;;;;;;;13.23;7.70;;;;;;;-2.88;57.45;96139.00;5117936;27;20121;-72
2022/01/13 00:06:32;;;;;;;11.60;6.82;;;;;;;-2.90;57.33;96139.88;5131939;27;20122;-72
2022/01/13 00:08:58;;;;;;;11.82;7.25;;;;;;;-2.88;58.00;96136.47;5129221;27;20042;-72
2022/01/13 00:11:23;;;;;;;11.48;6.50;;;;;;;-2.84;57.82;96143.22;5138549;27;20026;-72
2022/01/13 00:13:57;;;;;;;14.05;8.60;;;;;;;-2.79;59.50;96133.00;5117063;27;20034;-72
2022/01/13 00:18:50;;;;;;;19.10;10.68;;;;;;;-2.89;63.11;96139.88;5115561;27;20030;-72
2022/01/13 00:21:30;;;;;;;20.15;11.82;;;;;;;-2.81;64.35;96150.00;5129124;27;20031;-72
2022/01/13 00:23:59;;;;;;;21.58;12.73;;;;;;;-2.82;64.43;96155.91;5099538;27;20038;-72
2022/01/13 00:26:26;;;;;;;21.25;13.20;;;;;;;-2.84;65.29;96152.53;5100874;27;20125;-72
2022/01/13 00:28:53;;;;;;;20.60;12.35;;;;;;;-2.79;65.64;96164.34;5116681;27;20034;-72
2022/01/13 00:31:26;;;;;;;21.40;12.85;;;;;;;-2.85;65.63;96161.03;5133984;27;20065;-72
2022/01/13 00:33:54;;;;;;;20.10;12.90;;;;;;;-2.87;65.56;96153.44;5129632;27;20019;-72
2022/01/13 00:36:23;;;;;;;20.02;12.63;;;;;;;-2.81;65.91;96168.63;5155321;27;20408;-72
2022/01/13 00:38:48;;;;;;;22.52;13.77;;;;;;;-2.83;65.32;96162.72;5138530;27;20257;-72
2022/01/13 00:41:14;;;;;;;19.95;12.93;;;;;;;-2.85;65.53;96172.03;5154866;27;20038;-72
2022/01/13 00:43:41;;;;;;;20.63;11.90;;;;;;;-2.82;65.78;96168.63;5153857;27;20155;-72
2022/01/13 00:46:07;;;;;;;21.60;12.48;;;;;;;-2.85;65.79;96179.69;5173830;27;20034;-72
2022/01/13 00:48:33;;;;;;;21.05;12.63;;;;;;;-3.05;65.38;96159.50;5137357;27;20034;-72
2022/01/13 00:50:59;;;;;;;24.70;12.38;;;;;;;-2.89;65.40;96183.13;5155466;27;20033;-72
2022/01/13 00:53:24;;;;;;;25.20;13.63;;;;;;;-2.92;64.90;96183.16;5173699;27;20083;-72
2022/01/13 00:55:58;;;;;;;22.55;12.93;;;;;;;-2.96;65.53;96191.63;5154944;27;20033;-72
2022/01/13 00:58:27;;;;;;;20.95;12.32;;;;;;;-2.96;65.13;96184.00;5156212;27;20491;-72
2022/01/13 01:00:53;;;;;;;21.13;12.18;;;;;;;-2.96;65.37;96189.09;5138128;27;20038;-72
2022/01/13 01:03:19;;;;;;;21.38;11.82;;;;;;;-3.00;65.52;96182.38;5155206;27;20026;-72
2022/01/13 01:05:44;;;;;;;22.27;12.30;;;;;;;-3.08;64.77;96194.28;5154898;27;20464;-72
2022/01/13 01:08:10;;;;;;;25.50;13.82;;;;;;;-3.06;64.63;96197.69;5155154;27;20035;-72
2022/01/13 01:10:36;;;;;;;29.08;13.80;;;;;;;-3.07;64.90;96191.72;5144221;27;20030;-72
2022/01/13 01:13:10;;;;;;;22.40;12.82;;;;;;;-3.05;64.35;96197.66;5134395;27;20054;-73
2022/01/13 01:15:36;;;;;;;23.35;14.05;;;;;;;-3.11;64.72;96184.16;5152779;27;20035;-72
2022/01/13 01:18:12;;;;;;;23.33;13.18;;;;;;;-3.17;64.59;96196.03;5112325;27;20084;-72
2022/01/13 01:20:47;;;;;;;27.23;14.52;;;;;;;-3.23;64.66;96206.25;5099507;27;20023;-72
2022/01/13 01:23:17;;;;;;;20.88;12.50;;;;;;;-3.19;64.19;96202.84;5144161;27;20031;-72
2022/01/13 01:25:58;;;;;;;22.63;12.35;;;;;;;-3.22;64.34;96205.41;5117422;27;20516;-72
2022/01/13 01:28:33;;;;;;;21.38;12.32;;;;;;;-3.29;64.58;96211.38;5119695;27;20545;-72
2022/01/13 01:30:58;;;;;;;19.65;11.27;;;;;;;-3.29;64.41;96200.34;5132539;27;20134;-72
2022/01/13 01:33:24;;;;;;;22.70;12.75;;;;;;;-3.42;64.31;96176.75;5113347;28;20460;-72
2022/01/13 01:35:49;;;;;;;24.27;13.13;;;;;;;-3.42;64.98;96199.63;5113470;28;20476;-72
2022/01/13 01:38:15;;;;;;;21.88;13.10;;;;;;;-3.43;65.00;96197.91;5113351;28;20023;-73
2022/01/13 01:40:40;;;;;;;21.13;12.70;;;;;;;-3.45;64.22;96189.47;5096508;28;20054;-72
2022/01/13 01:43:05;;;;;;;21.55;13.35;;;;;;;-3.42;64.66;96200.44;5131784;28;20070;-72
2022/01/13 01:45:34;;;;;;;20.92;12.13;;;;;;;-3.42;64.25;96197.06;5134858;27;20019;-72
2022/01/13 01:48:03;;;;;;;26.20;13.05;;;;;;;-3.55;65.19;96196.28;5152402;27;20038;-72
2022/01/13 01:50:35;;;;;;;22.75;12.38;;;;;;;-3.54;64.72;96205.59;5117638;27;20119;-72
2022/01/13 01:53:00;;;;;;;21.85;12.45;;;;;;;-3.55;64.39;96187.84;5118806;27;20026;-72
2022/01/13 01:55:25;;;;;;;22.83;13.07;;;;;;;-3.56;65.00;96197.16;5133780;27;20030;-72
2022/01/13 01:57:52;;;;;;;21.58;12.70;;;;;;;-3.57;64.36;96199.69;5134133;27;20030;-72
2022/01/13 02:00:19;;;;;;;23.48;13.23;;;;;;;-3.81;65.08;96198.97;5156511;27;20457;-72
2022/01/13 02:02:44;;;;;;;23.80;13.63;;;;;;;-3.76;65.07;96204.88;5120924;27;20113;-72
2022/01/13 02:05:10;;;;;;;22.88;12.45;;;;;;;-3.71;64.81;96192.97;5120729;27;20131;-72
2022/01/13 02:07:36;;;;;;;21.10;12.63;;;;;;;-3.72;64.24;96188.75;5116039;27;20035;-72
2022/01/13 02:10:02;;;;;;;20.92;12.05;;;;;;;-3.80;64.29;96177.81;5124153;27;20099;-72
2022/01/13 02:12:36;;;;;;;24.33;12.98;;;;;;;-3.75;64.61;96186.25;5120301;27;20088;-72
2022/01/13 02:17:39;;;;;;;24.58;13.68;;;;;;;-3.73;65.66;96179.47;5136850;27;20038;-72
2022/01/13 02:20:05;;;;;;;20.70;12.00;;;;;;;-3.74;64.21;96182.00;5118217;27;20026;-72
2022/01/13 02:22:30;;;;;;;22.88;13.57;;;;;;;-3.82;64.05;96182.03;5119302;27;20027;-73
2022/01/13 02:24:56;;;;;;;25.08;12.73;;;;;;;-3.75;64.58;96185.41;5136881;27;20070;-72
2022/01/13 02:27:21;;;;;;;22.25;12.63;;;;;;;-3.85;64.62;96175.28;5137037;27;20118;-72
2022/01/13 02:29:47;;;;;;;23.65;12.70;;;;;;;-3.78;63.80;96180.34;5106490;27;20400;-72
2022/01/13 02:32:13;;;;;;;23.27;12.27;;;;;;;-3.78;64.04;96186.25;5116796;27;20051;-72
2022/01/13 02:34:38;;;;;;;22.67;12.20;;;;;;;-3.86;64.34;96177.84;5085898;27;20099;-72
2022/01/13 02:37:04;;;;;;;24.13;13.00;;;;;;;-3.99;64.71;96181.28;5129396;27;20027;-72
2022/01/13 02:39:29;;;;;;;20.17;12.50;;;;;;;-3.88;64.94;96189.69;5099667;27;20042;-72
2022/01/13 02:41:58;;;;;;;21.98;12.43;;;;;;;-3.87;64.94;96191.41;5131473;27;20030;-72
2022/01/13 02:44:24;;;;;;;21.48;12.20;;;;;;;-3.79;64.29;96201.50;5116981;27;20038;-72
2022/01/13 02:49:20;;;;;;;22.00;12.80;;;;;;;-3.79;63.85;96199.78;5129230;27;20095;-72
2022/01/13 02:51:47;;;;;;;23.73;12.75;;;;;;;-3.86;64.29;96203.22;5134508;27;20031;-72
2022/01/13 02:54:13;;;;;;;22.05;12.57;;;;;;;-3.86;64.27;96200.69;5134602;27;20640;-72
2022/01/13 02:56:38;;;;;;;25.00;12.68;;;;;;;-3.89;64.80;96205.78;5119638;27;20027;-72
2022/01/13 02:59:04;;;;;;;23.27;12.27;;;;;;;-3.96;63.47;96197.34;5125225;27;20081;-72
2022/01/13 03:01:30;;;;;;;21.15;11.75;;;;;;;-4.01;64.21;96194.00;5116343;27;20412;-72
2022/01/13 03:03:55;;;;;;;23.88;12.63;;;;;;;-4.13;64.10;96173.72;5116360;27;20119;-72
2022/01/13 03:06:27;;;;;;;23.77;13.27;;;;;;;-4.18;63.74;96188.13;5135245;27;20030;-72
2022/01/13 03:08:53;;;;;;;23.45;11.93;;;;;;;-4.17;63.47;96187.28;5133316;27;20092;-72
2022/01/13 03:11:19;;;;;;;23.08;12.05;;;;;;;-4.20;64.63;96180.53;5116943;27;20027;-72
2022/01/13 03:13:44;;;;;;;23.15;12.30;;;;;;;-4.22;64.24;96172.06;5113547;27;20075;-72
2022/01/13 03:16:13;;;;;;;20.67;11.52;;;;;;;-4.34;64.91;96169.59;5107518;27;20018;-72
2022/01/13 03:18:39;;;;;;;22.65;12.07;;;;;;;-4.29;64.68;96172.94;5127064;27;20031;-72
2022/01/13 03:21:05;;;;;;;21.67;12.38;;;;;;;-4.22;64.73;96171.22;5098770;27;20035;-72
2022/01/13 03:23:31;;;;;;;21.10;11.70;;;;;;;-4.19;65.49;96176.28;5115697;27;20031;-72
2022/01/13 03:25:56;;;;;;;22.63;13.15;;;;;;;-4.14;64.66;96180.50;5115674;27;20053;-72
2022/01/13 03:28:38;;;;;;;24.65;13.27;;;;;;;-4.13;64.12;96187.25;5148656;27;20503;-72
2022/01/13 03:31:04;;;;;;;;;;;;;;;-4.19;63.84;96189.81;5118743;27;20143;-72
2022/01/13 03:33:29;;;;;;;20.27;10.73;;;;;;;-4.26;64.50;96185.63;5115856;27;20007;-72
2022/01/13 03:35:55;;;;;;;22.27;11.80;;;;;;;-4.30;63.85;96191.53;5115601;27;20042;-72
2022/01/13 03:38:20;;;;;;;22.33;13.07;;;;;;;-4.22;64.60;96194.91;5102194;27;20035;-72
2022/01/13 03:40:45;;;;;;;21.48;11.95;;;;;;;-4.28;64.29;96178.00;5115023;27;20030;-72
2022/01/13 03:43:11;;;;;;;24.52;12.82;;;;;;;-4.16;64.02;96189.81;5141915;27;20477;-72
2022/01/13 03:45:37;;;;;;;22.52;12.25;;;;;;;-4.23;63.83;96193.22;5154275;27;20531;-72
2022/01/13 03:48:02;;;;;;;23.00;12.20;;;;;;;-4.19;63.30;96199.13;5124687;27;20112;-72
2022/01/13 03:50:28;;;;;;;22.38;12.00;;;;;;;-4.26;63.12;96185.63;5115027;27;20514;-72
2022/01/13 03:53:02;;;;;;;21.48;12.10;;;;;;;-4.21;63.34;96196.59;5081372;27;20035;-72
2022/01/13 03:55:38;;;;;;;19.40;11.15;;;;;;;-4.32;63.52;96193.25;5114993;27;20527;-72
2022/01/13 03:58:21;;;;;;;22.35;12.13;;;;;;;-4.29;62.79;96194.09;5133526;27;20219;-72
2022/01/13 04:01:05;;;;;;;18.42;10.68;;;;;;;-4.28;63.05;96189.84;5130885;27;20119;-72
2022/01/13 04:03:31;;;;;;;19.67;11.23;;;;;;;-4.43;62.71;96195.84;5154337;27;20103;-72
2022/01/13 04:06:12;;;;;;;22.20;11.90;;;;;;;-4.39;63.31;96206.81;5135542;27;20022;-72
2022/01/13 04:08:37;;;;;;;23.67;12.50;;;;;;;-4.43;62.38;96203.44;5135352;27;20561;-72
2022/01/13 04:11:06;;;;;;;18.60;11.45;;;;;;;-4.54;62.22;96211.06;5135588;27;20035;-72
2022/01/13 04:13:49;;;;;;;21.52;12.25;;;;;;;-4.62;62.37;96209.41;5153867;27;20064;-72
2022/01/13 04:16:24;;;;;;;19.50;11.98;;;;;;;-4.55;62.30;96211.91;5123254;27;20519;-72
2022/01/13 04:18:49;;;;;;;18.80;10.68;;;;;;;-4.50;62.12;96215.28;5119132;27;20038;-72
2022/01/13 04:21:18;;;;;;;24.30;11.90;;;;;;;-4.56;62.51;96215.28;5135256;27;20500;-72
2022/01/13 04:23:44;;;;;;;19.17;10.52;;;;;;;-4.53;62.07;96235.59;5100890;27;20415;-72
2022/01/13 04:26:09;;;;;;;19.25;10.20;;;;;;;-4.58;62.50;96229.66;5101045;27;20031;-72
2022/01/13 04:28:35;;;;;;;19.73;11.02;;;;;;;-4.56;62.38;96244.91;5117955;27;20109;-72
2022/01/13 04:31:01;;;;;;;32.47;16.65;;;;;;;-4.60;61.82;96244.03;5118225;27;20103;-72
2022/01/13 04:33:27;;;;;;;26.58;15.00;;;;;;;-4.66;62.15;96253.34;5100808;27;20070;-72
2022/01/13 04:35:53;;;;;;;20.98;11.68;;;;;;;-4.70;62.37;96252.50;5131041;27;20468;-72
2022/01/13 04:38:18;;;;;;;23.85;12.65;;;;;;;-4.61;62.04;96257.56;5114279;27;20023;-72
2022/01/13 04:40:46;;;;;;;23.02;12.93;;;;;;;-4.62;61.97;96252.53;5114286;27;20473;-72
2022/01/13 04:43:12;;;;;;;18.65;10.35;;;;;;;-4.75;62.00;96242.38;5146920;27;20038;-72
2022/01/13 04:45:37;;;;;;;19.13;10.88;;;;;;;-4.88;62.32;96255.88;5101712;27;20023;-72
2022/01/13 04:48:03;;;;;;;23.27;12.32;;;;;;;-4.75;63.29;96249.13;5098294;27;20034;-73
2022/01/13 04:50:28;;;;;;;19.48;10.68;;;;;;;-4.69;62.44;96244.03;5135869;27;20023;-72
2022/01/13 04:52:54;;;;;;;20.27;10.93;;;;;;;-4.68;62.87;96250.84;5120722;27;20476;-72
2022/01/13 04:55:25;;;;;;;16.90;10.27;;;;;;;-4.82;62.22;96238.16;5113510;27;20519;-72
2022/01/13 04:57:51;;;;;;;21.25;11.45;;;;;;;-4.80;62.49;96236.44;5109529;28;20063;-72
2022/01/13 05:00:16;;;;;;;19.33;10.32;;;;;;;-4.78;62.67;96244.06;5113931;27;20054;-73
2022/01/13 05:02:42;;;;;;;18.27;11.13;;;;;;;-4.78;61.80;96244.91;5121846;27;20504;-72
2022/01/13 05:05:08;;;;;;;18.08;10.50;;;;;;;-5.00;62.30;96231.38;5113859;27;20477;-73
2022/01/13 05:07:33;;;;;;;20.15;10.57;;;;;;;-5.05;62.76;96240.66;5113756;27;20046;-72
2022/01/13 05:09:59;;;;;;;20.92;10.02;;;;;;;-4.91;62.79;96242.38;5113834;27;20101;-73
2022/01/13 05:12:30;;;;;;;19.77;10.77;;;;;;;-4.90;62.43;96234.78;5096755;27;20461;-73
2022/01/13 05:15:01;;;;;;;22.48;11.95;;;;;;;-4.97;61.94;96244.06;5135114;27;20031;-72
2022/01/13 05:20:16;;;;;;;22.70;12.43;;;;;;;-4.94;62.10;96249.13;5120436;27;20129;-73
2022/01/13 05:22:42;;;;;;;17.98;10.27;;;;;;;-4.97;61.58;96255.88;5134925;27;20030;-72
2022/01/13 05:25:08;;;;;;;19.73;11.07;;;;;;;-4.97;61.77;96253.34;5134096;27;20473;-72
2022/01/13 05:27:33;;;;;;;21.48;11.30;;;;;;;-4.92;62.00;96255.91;5152521;27;20045;-73
2022/01/13 05:30:01;;;;;;;18.40;10.40;;;;;;;-4.95;62.04;96259.28;5133946;27;20042;-72
2022/01/13 05:32:26;;;;;;;20.15;10.30;;;;;;;-4.95;62.57;96262.66;5150970;27;20420;-73
2022/01/13 05:34:52;;;;;;;25.25;12.90;;;;;;;-4.94;62.06;96259.25;5152232;27;20030;-72
2022/01/13 05:37:17;;;;;;;22.52;11.13;;;;;;;-5.07;61.66;96237.31;5151323;27;20035;-72
2022/01/13 05:39:43;;;;;;;22.00;10.15;;;;;;;-5.00;61.53;96259.25;5152311;27;20027;-73
2022/01/13 05:42:08;;;;;;;19.35;10.48;;;;;;;-4.96;61.80;96266.03;5134072;27;20035;-72
2022/01/13 05:44:38;;;;;;;25.10;11.88;;;;;;;-4.95;61.83;96262.66;5152392;27;20027;-73
2022/01/13 05:47:04;;;;;;;37.67;19.52;;;;;;;-4.82;62.00;96282.94;5151395;27;20034;-73
2022/01/13 05:49:30;;;;;;;24.80;13.20;;;;;;;-4.86;61.60;96277.03;5151158;27;20035;-72
2022/01/13 05:51:55;;;;;;;24.23;11.85;;;;;;;-4.86;61.09;96282.09;5135393;27;20035;-72
2022/01/13 05:54:20;;;;;;;22.00;11.50;;;;;;;-4.83;61.38;96289.69;5130292;28;20532;-72
2022/01/13 05:56:46;;;;;;;19.88;10.55;;;;;;;-4.95;61.55;96284.63;5130506;27;20381;-72
2022/01/13 05:59:11;;;;;;;25.27;12.63;;;;;;;-4.95;61.15;96288.00;5143048;27;20458;-72
2022/01/13 06:01:37;;;;;;;24.48;12.30;;;;;;;-5.01;61.34;96289.69;5139089;27;20534;-72
2022/01/13 06:04:02;;;;;;;21.17;10.85;;;;;;;-5.08;60.79;96295.59;5138415;27;20041;-72
2022/01/13 06:06:27;;;;;;;20.13;10.50;;;;;;;-5.02;60.97;96298.13;5121655;28;20031;-72
2022/01/13 06:08:53;;;;;;;19.58;11.18;;;;;;;-5.10;60.34;96295.56;5130809;27;20035;-72
2022/01/13 06:11:22;;;;;;;20.50;10.48;;;;;;;-5.02;61.05;96295.59;5130965;27;20024;-72
2022/01/13 06:13:47;;;;;;;21.13;10.32;;;;;;;-5.05;61.12;96306.56;5146309;27;20047;-72
2022/01/13 06:16:13;;;;;;;18.60;9.85;;;;;;;-5.10;61.44;96304.88;5133013;27;20038;-73
2022/01/13 06:18:38;;;;;;;23.80;11.60;;;;;;;-5.24;61.61;96290.50;5133013;27;20031;-73
2022/01/13 06:21:04;;;;;;;18.13;10.25;;;;;;;-5.12;61.70;96304.88;5127562;27;20035;-72
2022/01/13 06:23:29;;;;;;;19.38;10.90;;;;;;;-5.18;61.36;96309.94;5120621;28;20035;-73
2022/01/13 06:25:57;;;;;;;21.65;10.73;;;;;;;-5.20;61.29;96316.69;5138145;27;20071;-72
2022/01/13 06:28:23;;;;;;;19.38;9.57;;;;;;;-5.32;61.56;96322.59;5149935;27;20066;-72
2022/01/13 06:30:48;;;;;;;21.52;10.95;;;;;;;-5.25;61.40;96320.91;5147471;27;20436;-72
2022/01/13 06:33:14;;;;;;;20.30;10.93;;;;;;;-5.39;62.29;96321.69;5130641;27;20520;-72
2022/01/13 06:35:39;;;;;;;22.58;11.15;;;;;;;-5.43;62.08;96324.22;5141076;27;20027;-72
2022/01/13 06:38:05;;;;;;;26.33;12.57;;;;;;;-5.35;62.17;96327.59;5128293;27;20039;-72
2022/01/13 06:40:30;;;;;;;25.25;12.65;;;;;;;-5.28;61.46;96338.63;5133209;27;20219;-72
2022/01/13 06:42:55;;;;;;;20.33;11.25;;;;;;;-5.25;61.46;96331.88;5149433;27;20031;-72
2022/01/13 06:45:21;;;;;;;20.88;10.98;;;;;;;-5.21;61.40;96338.66;5150629;27;20026;-72
2022/01/13 06:47:46;;;;;;;21.33;10.82;;;;;;;-5.18;60.88;96340.34;5166249;27;20034;-72
2022/01/13 06:50:12;;;;;;;21.80;11.40;;;;;;;-5.18;61.31;96340.34;5153128;27;20089;-72
2022/01/13 06:52:37;;;;;;;19.17;10.60;;;;;;;-5.23;61.84;96342.03;5122455;27;20034;-72
2022/01/13 06:55:03;;;;;;;22.15;11.07;;;;;;;-5.17;61.73;96349.63;5130015;27;20042;-72
2022/01/13 06:57:32;;;;;;;22.20;10.65;;;;;;;-5.32;60.70;96347.03;5132488;27;20027;-72
2022/01/13 06:59:57;;;;;;;23.98;11.48;;;;;;;-5.29;61.21;96350.47;5115795;27;20093;-72
2022/01/13 07:02:24;;;;;;;24.60;12.65;;;;;;;-5.28;61.30;96358.91;5115398;27;20485;-72
2022/01/13 07:04:50;;;;;;;24.30;12.90;;;;;;;-5.29;61.23;96359.72;5131841;27;20034;-72
2022/01/13 07:07:16;;;;;;;18.67;10.52;;;;;;;-5.21;61.79;96361.47;5134909;27;20035;-72
2022/01/13 07:09:41;;;;;;;21.52;11.68;;;;;;;-5.24;60.93;96370.72;5134349;27;20514;-72
2022/01/13 07:12:09;;;;;;;22.15;11.07;;;;;;;-5.23;61.34;96370.75;5152772;27;20480;-72
2022/01/13 07:14:34;;;;;;;23.23;12.00;;;;;;;-5.23;60.64;96374.97;5152437;27;20030;-72
2022/01/13 07:17:00;;;;;;;20.88;11.93;;;;;;;-5.26;60.44;96377.50;5141423;27;20031;-72
2022/01/13 07:19:25;;;;;;;22.25;11.52;;;;;;;-5.20;60.91;96382.56;5127793;27;20472;-72
2022/01/13 07:21:50;;;;;;;21.45;11.88;;;;;;;-5.40;60.38;96370.69;5119239;27;20056;-72
2022/01/13 07:24:16;;;;;;;23.38;11.70;;;;;;;-5.41;60.51;96371.50;5132715;27;20027;-72
2022/01/13 07:26:41;;;;;;;21.70;11.55;;;;;;;-5.39;60.60;96379.97;5115844;27;20087;-72
2022/01/13 07:29:07;;;;;;;23.73;12.80;;;;;;;-5.52;60.44;96369.78;5132899;27;20026;-72
2022/01/13 07:31:33;;;;;;;58.60;22.63;;;;;;;-5.41;60.26;96384.16;5132979;27;20057;-72
2022/01/13 07:33:58;;;;;;;39.45;18.10;;;;;;;-5.50;60.47;96385.81;5153327;27;20030;-72
2022/01/13 07:52:51;;;;;;;31.73;16.60;;;;;;;-5.00;59.11;96411.34;2903030;27;1306270;-71
2022/01/13 07:55:17;;;;;;;27.98;14.98;;;;;;;-5.20;59.50;96412.97;5066810;28;20040;-70
2022/01/13 07:57:42;;;;;;;30.95;14.80;;;;;;;-5.19;59.67;96423.09;5049898;28;20045;-70
2022/01/13 08:00:09;;;;;;;42.40;20.52;;;;;;;-5.29;59.58;96423.94;5049982;28;20504;-70
2022/01/13 08:02:35;;;;;;;47.58;20.45;;;;;;;-5.27;59.45;96421.38;5033527;28;20036;-73
2022/01/13 08:05:00;;;;;;;42.65;20.58;;;;;;;-5.40;60.17;96410.38;5049996;28;20024;-70
2022/01/13 08:07:26;;;;;;;43.85;20.75;;;;;;;-5.20;60.10;96435.78;5066442;28;20032;-70
2022/01/13 08:09:51;;;;;;;50.58;23.70;;;;;;;-5.14;59.54;96445.94;5049782;28;20453;-70
2022/01/13 08:12:17;;;;;;;37.90;16.13;;;;;;;-5.12;59.27;96436.66;5067786;28;20025;-70
2022/01/13 08:14:42;;;;;;;65.03;30.00;;;;;;;-5.25;60.23;96442.53;5049777;28;20418;-70
2022/01/13 08:17:18;;;;;;;49.95;23.35;;;;;;;-5.26;59.87;96439.16;5066140;28;20021;-72
2022/01/13 08:19:46;;;;;;;49.67;23.67;;;;;;;-5.11;59.37;96451.03;5067464;28;20111;-70
2022/01/13 08:22:15;;;;;;;46.83;22.90;;;;;;;-5.06;59.33;96461.19;5067425;28;20366;-73
2022/01/13 08:24:40;;;;;;;28.95;15.93;;;;;;;-5.09;58.42;96456.97;5049645;28;20109;-73
2022/01/13 08:27:06;;;;;;;38.47;19.77;;;;;;;-5.09;58.54;96454.41;5049318;28;20036;-73
2022/01/13 08:29:31;;;;;;;46.33;23.95;;;;;;;-4.95;58.40;96467.16;5049479;28;20037;-73
2022/01/13 08:31:57;;;;;;;31.80;16.88;;;;;;;-4.97;58.19;96467.13;5067135;28;20166;-72
2022/01/13 08:34:22;;;;;;;24.70;13.57;;;;;;;-5.01;58.00;96472.19;5065965;28;20095;-73
2022/01/13 08:36:48;;;;;;;27.75;14.25;;;;;;;-4.97;57.61;96478.97;5049190;28;20029;-73
2022/01/13 08:39:13;;;;;;;35.25;18.05;;;;;;;-5.06;56.73;96486.53;5066954;28;20403;-72
2022/01/13 08:41:39;;;;;;;41.10;22.65;;;;;;;-5.12;56.71;96481.44;5065620;28;20025;-73
2022/01/13 08:44:05;;;;;;;25.90;13.55;;;;;;;-5.16;57.58;96470.44;5032484;28;20040;-73
2022/01/13 08:46:30;;;;;;;33.38;16.65;;;;;;;-5.06;57.61;96472.16;5049047;28;20028;-72
2022/01/13 08:48:56;;;;;;;41.20;22.48;;;;;;;-5.03;57.40;96472.19;5060295;28;20426;-72
2022/01/13 08:51:21;;;;;;;28.92;15.35;;;;;;;-5.13;57.62;96465.38;5052416;28;20403;-72
2022/01/13 08:53:47;;;;;;;29.13;16.30;;;;;;;-5.26;56.39;96459.41;5048579;28;20056;-73
2022/01/13 08:56:13;;;;;;;20.50;10.82;;;;;;;-5.04;56.57;96475.56;5073532;28;20536;-73
2022/01/13 08:58:38;;;;;;;32.38;14.90;;;;;;;-5.01;56.46;96479.81;5072402;28;20303;-72
2022/01/13 09:01:04;;;;;;;23.77;13.75;;;;;;;-4.97;56.60;96481.50;5072154;28;20468;-73
2022/01/13 09:03:29;;;;;;;22.95;14.35;;;;;;;-4.95;55.42;96473.06;5072333;28;20035;-73
2022/01/13 09:05:55;;;;;;;32.92;19.20;;;;;;;-4.95;54.98;96472.22;5073318;28;20040;-73
2022/01/13 09:08:20;;;;;;;65.18;30.08;;;;;;;-4.92;55.56;96457.03;5072179;28;20035;-72
2022/01/13 09:10:46;;;;;;;51.28;25.60;;;;;;;-4.77;54.20;96469.72;5071973;28;20025;-73
2022/01/13 09:13:14;;;;;;;31.60;17.17;;;;;;;-4.78;54.80;96462.97;5055312;28;20032;-73
2022/01/13 09:15:45;;;;;;;23.20;13.55;;;;;;;-4.74;54.03;96467.19;5055402;28;20029;-73
2022/01/13 09:18:15;;;;;;;20.10;11.75;;;;;;;-4.79;53.57;96465.50;5055902;28;20516;-73
2022/01/13 09:20:41;;;;;;;25.13;13.30;;;;;;;-4.73;54.98;96471.44;5056033;28;20473;-73
2022/01/13 09:23:07;;;;;;;34.42;17.50;;;;;;;-4.78;54.51;96472.28;5073282;28;20028;-72
2022/01/13 09:25:33;;;;;;;25.77;12.82;;;;;;;-4.58;54.13;96469.78;5071731;28;20559;-73
2022/01/13 09:27:58;;;;;;;25.38;12.63;;;;;;;-4.49;53.34;96459.66;5071800;28;20040;-73
2022/01/13 09:30:24;;;;;;;22.05;12.95;;;;;;;-4.46;54.61;96458.81;5072921;28;20051;-72
2022/01/13 09:32:49;;;;;;;24.70;12.68;;;;;;;-4.56;53.56;96448.66;5071702;28;20043;-73
2022/01/13 09:35:15;;;;;;;37.60;17.27;;;;;;;-4.71;54.14;96435.94;5071652;28;20029;-73
2022/01/13 09:37:40;;;;;;;113.28;43.38;;;;;;;-4.66;53.69;96426.66;5054730;28;20037;-72
2022/01/13 09:40:07;;;;;;;29.42;15.73;;;;;;;-4.65;53.50;96423.28;5071451;28;20025;-72
2022/01/13 09:42:33;;;;;;;100.68;50.88;;;;;;;-4.56;54.64;96423.31;5055077;28;20036;-73
2022/01/13 09:45:00;;;;;;;68.03;29.65;;;;;;;-4.37;54.79;96426.72;5071324;28;20085;-73
2022/01/13 09:47:26;;;;;;;129.25;59.05;;;;;;;-4.23;54.23;96426.72;5072713;28;20070;-73
2022/01/13 09:49:51;;;;;;;31.02;17.95;;;;;;;-4.13;53.39;96432.63;5072493;28;20040;-73
2022/01/13 09:52:18;;;;;;;22.40;12.48;;;;;;;-4.17;53.23;96429.25;5072759;28;20039;-72
2022/01/13 09:54:43;;;;;;;29.48;17.25;;;;;;;-4.09;53.86;96421.66;5074971;28;20024;-73
2022/01/13 09:57:09;;;;;;;30.77;17.08;;;;;;;-4.19;53.46;96418.25;5074280;28;20032;-72
2022/01/13 09:59:34;;;;;;;47.47;31.15;;;;;;;-4.14;53.34;96405.56;5074412;28;20043;-73
2022/01/13 10:01:59;;;;;;;27.98;16.55;;;;;;;-4.08;53.26;96396.25;5073373;28;20039;-72
2022/01/13 10:04:44;;;;;;;33.45;16.35;;;;;;;-4.03;53.88;96387.78;5092462;28;20085;-72
2022/01/13 10:07:11;;;;;;;33.58;20.02;;;;;;;-3.97;53.45;96381.00;5041295;28;20536;-72
2022/01/13 10:09:53;;;;;;;37.15;24.33;;;;;;;-3.81;53.47;96371.69;5092329;28;20107;-73
2022/01/13 10:12:26;;;;;;;38.13;19.85;;;;;;;-3.87;52.55;96370.00;5074227;28;20028;-72
2022/01/13 10:17:28;;;;;;;60.28;26.63;;;;;;;-3.86;53.56;96355.59;5074202;28;20062;-73
2022/01/13 10:19:57;;;;;;;52.47;24.30;;;;;;;-3.67;54.24;96356.41;5073944;28;20090;-72
2022/01/13 10:22:23;;;;;;;38.15;17.98;;;;;;;-3.54;53.58;96363.13;5074394;28;20070;-73
2022/01/13 10:24:53;;;;;;;46.42;24.27;;;;;;;-3.51;53.68;96370.75;5040865;28;20032;-73
2022/01/13 10:27:23;;;;;;;39.95;18.67;;;;;;;-3.44;53.22;96354.63;5057281;28;20050;-71
2022/01/13 10:29:50;;;;;;;38.42;22.35;;;;;;;-3.41;52.48;96343.59;5057269;28;20489;-74
2022/01/13 10:32:21;;;;;;;43.50;24.67;;;;;;;-3.35;53.00;96327.47;5057294;28;20024;-74
2022/01/13 10:34:47;;;;;;;38.47;25.40;;;;;;;-3.45;52.02;96331.78;5057274;28;20508;-73
2022/01/13 10:37:14;;;;;;;26.13;11.95;;;;;;;-3.51;51.17;96327.56;5091777;28;20078;-73
2022/01/13 10:39:57;;;;;;;26.52;14.35;;;;;;;-3.49;52.10;96322.47;5091806;28;20020;-74
2022/01/13 10:45:41;;;;;;;;;;;;;;;-3.62;52.57;96334.38;5074053;28;20028;-74
2022/01/13 10:48:18;;;;;;;25.25;13.18;;;;;;;-3.77;52.51;96329.31;5091806;28;20353;-74
2022/01/13 10:50:43;;;;;;;42.00;18.33;;;;;;;-3.85;53.38;96316.66;5058306;28;20111;-73
2022/01/13 10:53:14;;;;;;;49.83;23.58;;;;;;;-3.96;53.72;96308.22;5091337;28;20036;-74
2022/01/13 10:55:42;;;;;;;49.20;23.98;;;;;;;-3.97;53.79;96302.28;5056642;28;20059;-74
2022/01/13 10:58:08;;;;;;;77.60;42.42;;;;;;;-3.86;53.39;96303.09;5073349;28;20060;-74
2022/01/13 11:00:34;;;;;;;144.07;57.50;;;;;;;-3.85;53.14;96288.72;5056554;28;20060;-74
2022/01/13 11:03:04;;;;;;;183.82;71.72;;;;;;;-3.77;53.69;96294.63;5056560;28;20028;-74
2022/01/13 11:05:30;;;;;;;123.07;47.33;;;;;;;-3.67;53.27;96293.75;5073223;28;20481;-73
2022/01/13 11:07:59;;;;;;;80.90;32.67;;;;;;;-3.59;52.87;96314.03;5056711;28;20028;-73
2022/01/13 11:10:25;;;;;;;68.57;27.08;;;;;;;-3.51;52.46;96302.16;5073695;28;20028;-74
2022/01/13 11:12:57;;;;;;;74.88;35.42;;;;;;;-3.61;52.05;96301.31;5056165;28;20035;-74
2022/01/13 11:15:23;;;;;;;35.20;16.73;;;;;;;-3.56;52.22;96301.31;5074092;28;20169;-73
2022/01/13 11:17:49;;;;;;;73.93;33.35;;;;;;;-3.45;52.27;96303.81;5073209;28;20039;-74
2022/01/13 11:20:17;;;;;;;29.63;14.68;;;;;;;-3.34;51.81;96298.66;5073171;28;20036;-73
2022/01/13 11:22:45;;;;;;;71.95;34.35;;;;;;;-3.32;52.15;96307.13;5056798;28;20031;-73
2022/01/13 11:25:11;;;;;;;32.03;16.20;;;;;;;-3.29;51.57;96284.22;5056603;28;20032;-73
2022/01/13 11:27:37;;;;;;;97.28;36.83;;;;;;;-3.16;51.48;96298.56;5056149;28;20024;-74
2022/01/13 11:30:05;;;;;;;162.18;54.70;;;;;;;-3.05;52.02;96299.34;5056116;28;20423;-73
2022/01/13 11:32:31;;;;;;;125.15;65.05;;;;;;;-3.11;51.17;96285.84;5073294;28;20039;-74
2022/01/13 11:34:58;;;;;;;71.03;38.40;;;;;;;-2.99;50.60;96295.94;5056120;28;20036;-74
2022/01/13 11:37:27;;;;;;;69.18;32.60;;;;;;;-2.89;50.79;96294.19;5056305;28;20038;-74
2022/01/13 11:39:53;;;;;;;104.00;40.90;;;;;;;-2.80;50.35;96281.41;5072890;28;20032;-73
2022/01/13 11:42:18;;;;;;;38.25;17.38;;;;;;;-2.84;50.40;96279.72;5090902;28;20039;-73
2022/01/13 11:44:44;;;;;;;32.83;15.85;;;;;;;-2.84;49.87;96287.34;5090939;28;20032;-73
2022/01/13 11:47:24;;;;;;;38.17;20.67;;;;;;;-2.98;50.44;96290.84;5056035;28;20484;-73
2022/01/13 11:50:04;;;;;;;37.33;18.33;;;;;;;-2.80;50.65;96282.22;5073220;28;20038;-73